M I D A S
Marine Information and Data Acquisition System
Tripno 876 of the Zeeleeuw from 2005-04-04 09:42:55 to 2005-04-04 11:08:42
Back to CruiseResearch ActivitiesStationsMapUnderway DataData graphs

EquipmentUnitsComment
TimeDGPSUTC
LatitudeDGPSDM.mWGS84
LongitudeDGPSDM.mWGS84
TemperatureSBE03/SBE38deg celciusITS90
ConductivitySBE21S/mITS90
SalinitySBE21 Practical Salinity Units
ChlorophylAChelsea fluorimeterg/lCalibrated in Aceton
Missing or incorrect values are displayed as -999
Sea surface data collected by the RV Zeeleeuw from 2005-04-04 09:26:23 to 2005-04-04 11:18:58
Time Latitude Longitude Temperature Conductivity Salinity ChlorophylA
2005-04-04 09:27:29 51°13.618 2°56.019 8.487 2.96633 27.518074 9.264153
2005-04-04 09:28:28 51°13.606 2°56.041 8.6525 2.959594 27.432404 7.275298
2005-04-04 09:29:28 51°13.572 2°56.101 8.6769 2.875077 26.437931 6.904494
2005-04-04 09:30:28 51°13.545 2°56.174 8.6673 2.890337 26.592028 6.095469
2005-04-04 09:31:28 51°13.544 2°56.214 9.1899 2.832035 25.939923 5.657247
2005-04-04 09:32:29 51°13.547 2°56.217 8.9062 2.733546 24.777125 5.825794
2005-04-04 09:33:28 51°13.542 2°56.219 8.7034 2.833929 25.915089 5.792084
2005-04-04 09:34:28 51°13.54 2°56.226 8.6405 2.923701 26.969632 5.994341
2005-04-04 09:35:28 51°13.533 2°56.228 8.8736 2.933384 27.086493 5.825794
2005-04-04 09:36:28 51°13.547 2°56.193 8.9972 2.734388 24.816409 5.690956
2005-04-04 09:37:28 51°13.567 2°56.126 8.8857 2.757009 25.037792 5.556118
2005-04-04 09:38:28 51°13.602 2°56.034 8.9083 2.822563 25.783298 5.556118
2005-04-04 09:39:28 51°13.647 2°55.919 9.1069 2.727654 24.720656 5.185315
2005-04-04 09:40:28 51°13.711 2°55.781 8.9094 2.753852 24.973975 5.219024
2005-04-04 09:41:28 51°13.809 2°55.652 8.9594 2.822142 25.759367 6.129178
2005-04-04 09:42:28 51°13.926 2°55.563 8.7177 2.764584 25.117579 6.499982
2005-04-04 09:43:28 51°14.049 2°55.473 8.6382 2.927595 27.00358 7.14046
2005-04-04 09:44:28 51°14.191 2°55.358 8.648 2.896652 26.638704 7.106751
2005-04-04 09:45:28 51°14.319 2°55.161 8.7198 2.924227 26.960515 7.14046
2005-04-04 09:46:28 51°14.441 2°54.905 8.671 2.912228 26.786083 7.039332
2005-04-04 09:47:28 51°14.559 2°54.636 8.4459 3.067492 28.495921 8.185452
2005-04-04 09:48:28 51°14.666 2°54.365 8.3798 3.19721 29.943414 9.129315
2005-04-04 09:49:28 51°14.752 2°54.078 8.3206 3.205424 30.081602 9.230443
2005-04-04 09:50:28 51°14.806 2°53.771 8.2902 3.203108 30.098666 10.140597
2005-04-04 09:51:28 51°14.818 2°53.449 8.2657 3.185945 29.954862 9.39899
2005-04-04 09:52:28 51°14.809 2°53.129 8.1835 3.178574 29.890193 8.522546
2005-04-04 09:53:28 51°14.794 2°52.803 8.1854 3.169519 29.885696 9.028187
2005-04-04 09:54:28 51°14.78 2°52.48 8.26 3.176574 29.916747 8.724802
2005-04-04 09:55:28 51°14.786 2°52.22 8.1885 3.187419 29.980114 8.657383
2005-04-04 09:56:28 51°14.773 2°52.087 8.1324 3.18384 30.027301 8.994477
2005-04-04 09:57:28 51°14.748 2°52.007 8.1404 3.183629 30.044331 8.657383
2005-04-04 09:58:28 51°14.734 2°51.941 8.1247 3.184998 30.058626 8.893349
2005-04-04 09:59:28 51°14.723 2°51.868 8.1291 3.187736 30.097214 9.028187
2005-04-04 10:00:28 51°14.721 2°51.789 8.1215 3.189842 30.118504 8.82593
2005-04-04 10:01:28 51°14.717 2°51.711 8.1403 3.190263 30.124335 8.960768
2005-04-04 10:02:28 51°14.704 2°51.641 8.1219 3.191737 30.121156 8.657383
2005-04-04 10:03:28 51°14.686 2°51.569 8.0151 3.189316 30.146626 8.623674
2005-04-04 10:04:28 51°14.669 2°51.497 7.9786 3.182999 30.150756 8.960768
2005-04-04 10:05:28 51°14.653 2°51.425 7.9829 3.18163 30.158677 9.196734
2005-04-04 10:06:28 51°14.641 2°51.35 7.9942 3.175944 30.089719 9.129315
2005-04-04 10:07:28 51°14.627 2°51.276 7.9585 3.18342 30.173139 8.994477
2005-04-04 10:08:28 51°14.611 2°51.202 7.9373 3.205113 30.429781 9.129315
2005-04-04 10:09:28 51°14.596 2°51.128 7.9367 3.20406 30.43106 9.297862
2005-04-04 10:10:28 51°14.582 2°51.052 7.9436 3.205218 30.441784 9.230443
2005-04-04 10:11:28 51°14.57 2°50.975 7.9373 3.207219 30.459183 9.331571
2005-04-04 10:12:28 51°14.56 2°50.897 7.9641 3.207956 30.467659 9.196734
2005-04-04 10:13:28 51°14.553 2°50.819 8.0082 3.21301 30.490239 9.163024
2005-04-04 10:14:28 51°14.542 2°50.743 8.0112 3.219328 30.528235 9.061896
2005-04-04 10:15:28 51°14.523 2°50.673 7.9967 3.220908 30.547729 9.297862
2005-04-04 10:16:28 51°14.502 2°50.605 7.9848 3.220171 30.552363 9.365281
2005-04-04 10:17:28 51°14.485 2°50.531 7.9901 3.220908 30.564476 9.4327
2005-04-04 10:18:28 51°14.469 2°50.457 8.0019 3.223014 30.579315 9.668665
2005-04-04 10:19:28 51°14.451 2°50.386 8.0435 3.225225 30.590882 9.39899
2005-04-04 10:20:28 51°14.43 2°50.319 8.0627 3.23228 30.626323 9.264153
2005-04-04 10:21:28 51°14.408 2°50.253 8.0674 3.236282 30.659558 9.230443
2005-04-04 10:22:28 51°14.386 2°50.186 8.0561 3.237335 30.672064 9.196734
2005-04-04 10:23:28 51°14.367 2°50.113 8.0484 3.237019 30.677505 9.567537
2005-04-04 10:24:28 51°14.352 2°50.038 8.0417 3.236493 30.677088 9.702375
2005-04-04 10:25:28 51°14.335 2°49.965 8.0304 3.23565 30.677005 9.601247
2005-04-04 10:26:28 51°14.312 2°49.893 8.0144 3.234808 30.678383 9.803503
2005-04-04 10:27:28 51°14.289 2°49.823 8.0121 3.234492 30.68164 9.904631
2005-04-04 10:28:28 51°14.269 2°49.745 8.0163 3.236704 30.708526 10.241725
2005-04-04 10:29:28 51°14.253 2°49.668 8.021 3.238283 30.719269 10.073178
2005-04-04 10:30:28 51°14.235 2°49.591 8.0265 3.23881 30.72041 9.870922
2005-04-04 10:31:28 51°14.22 2°49.51 8.0292 3.239757 30.725976 9.601247
2005-04-04 10:32:28 51°14.21 2°49.423 8.0255 3.239968 30.726725 9.702375
2005-04-04 10:33:28 51°14.215 2°49.327 8.0369 3.239652 30.727064 10.174306
2005-04-04 10:34:28 51°14.239 2°49.232 8.0548 3.241863 30.738584 9.97205
2005-04-04 10:35:28 51°14.275 2°49.161 8.0583 3.245444 30.762273 10.073178
2005-04-04 10:36:29 51°14.309 2°49.116 8.0665 3.248182 30.789551 10.174306
2005-04-04 10:37:28 51°14.337 2°49.083 8.0881 3.249761 30.792951 9.870922
2005-04-04 10:38:28 51°14.361 2°49.058 8.1057 3.253658 30.816261 9.736084
2005-04-04 10:39:28 51°14.384 2°49.036 8.1279 3.251762 30.780289 9.870922
2005-04-04 10:40:28 51°14.474 2°49.001 8.0283 3.269033 30.937912 11.859777
2005-04-04 10:41:29 51°14.594 2°49.15 7.9821 3.26756 31.027013 13.208153
2005-04-04 10:42:28 51°14.737 2°49.371 7.9792 3.261557 30.989712 13.309281
2005-04-04 10:43:28 51°14.888 2°49.642 8.0049 3.256818 30.925097 11.893486
2005-04-04 10:44:28 51°15.025 2°49.939 8.01 3.252079 30.871583 11.219298
2005-04-04 10:45:28 51°15.122 2°50.274 8.2099 3.252816 30.853611 11.185589
2005-04-04 10:46:28 51°15.219 2°50.614 8.1364 3.253868 30.823597 10.241725
2005-04-04 10:47:28 51°15.317 2°50.954 8.0449 3.244812 30.720567 9.736084
2005-04-04 10:48:28 51°15.414 2°51.293 7.9863 3.234597 30.678363 9.533828
2005-04-04 10:49:28 51°15.512 2°51.63 7.9658 3.228701 30.649281 8.927059
2005-04-04 10:50:28 51°15.608 2°51.966 16.4739 3.282825 30.732061 9.365281
2005-04-04 10:51:28 51°15.707 2°52.308 9.223 4.211879 31.952146 0.432289
2005-04-04 10:52:28 51°15.806 2°52.648 8.2385 3.324529 30.981376 8.421418
2005-04-04 10:53:28 51°15.905 2°52.988 8.1238 3.245337 30.617731 8.589965
2005-04-04 10:54:28 51°16.005 2°53.325 8.0662 3.227541 30.561346 8.252871
2005-04-04 10:55:28 51°16.106 2°53.669 7.9608 3.22175 30.525309 8.151742
2005-04-04 10:56:28 51°16.204 2°54.008 7.9824 3.2148 30.501046 7.780939
2005-04-04 10:57:28 51°16.226 2°54.353 9.2976 3.215221 30.469159 7.71352
2005-04-04 10:58:28 51°16.031 2°54.465 7.8857 3.240071 30.554051 7.544973
2005-04-04 10:59:28 51°15.817 2°54.434 8.0603 3.192793 30.375733 8.016905
2005-04-04 11:00:28 51°15.607 2°54.364 8.1562 3.196055 30.181996 8.219161
2005-04-04 11:01:28 51°15.397 2°54.291 8.1461 3.194159 30.134303 7.983195
2005-04-04 11:02:28 51°15.184 2°54.216 8.0542 3.187631 30.10826 8.252871
2005-04-04 11:03:28 51°14.979 2°54.148 8.2471 3.192685 30.12034 9.095606
2005-04-04 11:04:28 51°14.82 2°54.233 8.3302 3.200582 30.121421 8.589965
2005-04-04 11:05:28 51°14.666 2°54.423 8.3666 3.241966 30.475099 10.477691
2005-04-04 11:06:28 51°14.533 2°54.662 8.3877 3.255866 30.604687 11.11817
2005-04-04 11:07:28 51°14.423 2°54.906 8.435 3.224799 30.21675 10.005759
2005-04-04 11:08:28 51°14.327 2°55.134 8.3873 3.201633 30.007598 9.4327
2005-04-04 11:09:28 51°14.237 2°55.305 8.463 3.110344 29.095522 8.421418
2005-04-04 11:10:28 51°14.141 2°55.41 8.4839 3.042648 28.32926 8.219161
2005-04-04 11:11:28 51°14.04 2°55.484 8.4633 3.027594 28.160624 7.74723
2005-04-04 11:12:28 51°13.946 2°55.551 8.5895 3.011698 27.969199 7.646101
2005-04-04 11:13:28 51°13.853 2°55.619 8.6417 2.971382 27.471259 7.207879
2005-04-04 11:14:28 51°13.764 2°55.705 9.4722 2.938962 27.093329 6.904494
2005-04-04 11:15:28 51°13.695 2°55.83 9.7001 2.457023 21.649093 6.5674
2005-04-04 11:16:28 51°13.638 2°55.957 9.3832 2.656428 23.676457 5.960631
2005-04-04 11:17:28 51°13.608 2°56.05 9.8701 2.694511 24.124332 5.893212
2005-04-04 11:18:29 51°13.595 2°56.102 9.8689 2.394464 20.904988 7.17417